sensor_id;sensor_type;location;lat;lon;timestamp;pressure;altitude;pressure_sealevel;temperature;humidity
9695;BME280;4690;52.422;13.486;2023-03-18T00:05:42;100786.25;;;10.16;47.24
9695;BME280;4690;52.422;13.486;2023-03-18T00:08:08;100791.34;;;10.13;47.14
9695;BME280;4690;52.422;13.486;2023-03-18T00:10:34;100790.13;;;10.08;46.68
9695;BME280;4690;52.422;13.486;2023-03-18T00:13:01;100794.25;;;10.18;47.09
9695;BME280;4690;52.422;13.486;2023-03-18T00:15:29;100786.59;;;10.01;47.36
9695;BME280;4690;52.422;13.486;2023-03-18T00:17:55;100792.25;;;10.06;46.86
9695;BME280;4690;52.422;13.486;2023-03-18T00:20:24;100788.88;;;10.04;46.95
9695;BME280;4690;52.422;13.486;2023-03-18T00:23:04;100789.78;;;9.98;47.08
9695;BME280;4690;52.422;13.486;2023-03-18T00:25:30;100781.50;;;10.05;47.49
9695;BME280;4690;52.422;13.486;2023-03-18T00:27:56;100776.63;;;10.14;46.96
9695;BME280;4690;52.422;13.486;2023-03-18T00:30:21;100776.31;;;10.22;46.45
9695;BME280;4690;52.422;13.486;2023-03-18T00:32:48;100780.56;;;10.18;47.15
9695;BME280;4690;52.422;13.486;2023-03-18T00:35:14;100774.44;;;10.22;46.44
9695;BME280;4690;52.422;13.486;2023-03-18T00:37:41;100776.09;;;10.23;46.12
9695;BME280;4690;52.422;13.486;2023-03-18T00:40:10;100783.53;;;9.91;46.93
9695;BME280;4690;52.422;13.486;2023-03-18T00:42:42;100777.72;;;10.06;46.63
9695;BME280;4690;52.422;13.486;2023-03-18T00:45:14;100773.44;;;10.17;46.19
9695;BME280;4690;52.422;13.486;2023-03-18T00:47:42;100769.78;;;9.98;46.32
9695;BME280;4690;52.422;13.486;2023-03-18T00:50:10;100768.22;;;10.08;46.56
9695;BME280;4690;52.422;13.486;2023-03-18T00:52:36;100770.25;;;10.20;46.07
9695;BME280;4690;52.422;13.486;2023-03-18T00:55:04;100771.34;;;10.12;46.41
9695;BME280;4690;52.422;13.486;2023-03-18T00:57:31;100770.06;;;10.15;46.17
9695;BME280;4690;52.422;13.486;2023-03-18T00:59:57;100768.78;;;10.17;45.99
9695;BME280;4690;52.422;13.486;2023-03-18T01:02:27;100768.41;;;10.14;46.29
9695;BME280;4690;52.422;13.486;2023-03-18T01:04:54;100778.03;;;10.16;46.65
9695;BME280;4690;52.422;13.486;2023-03-18T01:07:22;100766.09;;;10.10;45.93
9695;BME280;4690;52.422;13.486;2023-03-18T01:09:48;100761.94;;;10.01;46.41
9695;BME280;4690;52.422;13.486;2023-03-18T01:12:15;100778.81;;;9.98;46.81
9695;BME280;4690;52.422;13.486;2023-03-18T01:14:41;100772.41;;;10.11;45.95
9695;BME280;4690;52.422;13.486;2023-03-18T01:17:08;100767.81;;;10.05;46.77
9695;BME280;4690;52.422;13.486;2023-03-18T01:19:36;100762.97;;;10.07;46.15
9695;BME280;4690;52.422;13.486;2023-03-18T01:22:03;100768.22;;;10.08;46.34
9695;BME280;4690;52.422;13.486;2023-03-18T01:24:29;100774.97;;;9.81;46.95
9695;BME280;4690;52.422;13.486;2023-03-18T01:26:55;100770.69;;;9.85;46.48
9695;BME280;4690;52.422;13.486;2023-03-18T01:29:21;100771.31;;;9.87;47.01
9695;BME280;4690;52.422;13.486;2023-03-18T01:31:49;100760.31;;;9.94;46.88
9695;BME280;4690;52.422;13.486;2023-03-18T01:34:15;100751.72;;;9.90;47.03
9695;BME280;4690;52.422;13.486;2023-03-18T01:36:41;100763.34;;;9.85;46.71
9695;BME280;4690;52.422;13.486;2023-03-18T01:39:08;100757.66;;;9.87;46.85
9695;BME280;4690;52.422;13.486;2023-03-18T01:41:35;100753.50;;;9.78;47.36
9695;BME280;4690;52.422;13.486;2023-03-18T01:44:01;100749.88;;;9.84;46.68
9695;BME280;4690;52.422;13.486;2023-03-18T01:46:42;100755.97;;;9.86;46.47
9695;BME280;4690;52.422;13.486;2023-03-18T01:49:17;100753.13;;;9.99;46.55
9695;BME280;4690;52.422;13.486;2023-03-18T01:52:14;100743.03;;;10.00;45.97
9695;BME280;4690;52.422;13.486;2023-03-18T01:54:48;100757.44;;;9.88;46.05
9695;BME280;4690;52.422;13.486;2023-03-18T01:57:17;100760.75;;;9.91;46.71
9695;BME280;4690;52.422;13.486;2023-03-18T01:59:46;100758.72;;;9.86;46.34
9695;BME280;4690;52.422;13.486;2023-03-18T02:02:15;100761.28;;;9.81;46.94
9695;BME280;4690;52.422;13.486;2023-03-18T02:04:54;100759.16;;;9.83;46.84
9695;BME280;4690;52.422;13.486;2023-03-18T02:07:31;100762.09;;;9.81;46.61
9695;BME280;4690;52.422;13.486;2023-03-18T02:10:09;100759.19;;;9.76;47.05
9695;BME280;4690;52.422;13.486;2023-03-18T02:12:42;100766.81;;;9.74;46.99
9695;BME280;4690;52.422;13.486;2023-03-18T02:15:15;100757.34;;;9.70;47.09
9695;BME280;4690;52.422;13.486;2023-03-18T02:17:52;100758.97;;;9.78;46.74
9695;BME280;4690;52.422;13.486;2023-03-18T02:20:41;100750.50;;;9.86;46.66
9695;BME280;4690;52.422;13.486;2023-03-18T02:28:35;100753.13;;;9.74;47.41
9695;BME280;4690;52.422;13.486;2023-03-18T02:31:09;100756.25;;;9.78;47.26
9695;BME280;4690;52.422;13.486;2023-03-18T02:33:38;100757.72;;;9.74;47.31
9695;BME280;4690;52.422;13.486;2023-03-18T02:36:13;100752.88;;;9.76;47.65
9695;BME280;4690;52.422;13.486;2023-03-18T02:38:44;100760.03;;;9.77;47.32
9695;BME280;4690;52.422;13.486;2023-03-18T02:41:18;100750.94;;;9.83;47.04
9695;BME280;4690;52.422;13.486;2023-03-18T02:43:45;100752.00;;;9.82;47.38
9695;BME280;4690;52.422;13.486;2023-03-18T02:46:46;100764.00;;;9.81;46.77
9695;BME280;4690;52.422;13.486;2023-03-18T02:49:17;100751.53;;;9.85;47.40
9695;BME280;4690;52.422;13.486;2023-03-18T02:51:44;100761.94;;;9.76;47.30
9695;BME280;4690;52.422;13.486;2023-03-18T02:54:16;100752.31;;;9.67;47.54
9695;BME280;4690;52.422;13.486;2023-03-18T02:56:43;100756.78;;;9.61;47.49
9695;BME280;4690;52.422;13.486;2023-03-18T02:59:10;100748.31;;;9.70;47.33
9695;BME280;4690;52.422;13.486;2023-03-18T03:01:37;100743.84;;;9.75;47.60
9695;BME280;4690;52.422;13.486;2023-03-18T03:04:04;100745.56;;;9.70;47.54
9695;BME280;4690;52.422;13.486;2023-03-18T03:06:32;100750.16;;;9.76;47.56
9695;BME280;4690;52.422;13.486;2023-03-18T03:08:58;100742.78;;;9.76;47.78
9695;BME280;4690;52.422;13.486;2023-03-18T03:11:26;100747.47;;;9.69;47.39
9695;BME280;4690;52.422;13.486;2023-03-18T03:13:52;100744.03;;;9.74;47.32
9695;BME280;4690;52.422;13.486;2023-03-18T03:16:20;100752.31;;;9.67;47.62
9695;BME280;4690;52.422;13.486;2023-03-18T03:18:46;100751.28;;;9.61;47.22
9695;BME280;4690;52.422;13.486;2023-03-18T03:21:13;100742.66;;;9.64;47.53
9695;BME280;4690;52.422;13.486;2023-03-18T03:23:40;100745.00;;;9.54;48.06
9695;BME280;4690;52.422;13.486;2023-03-18T03:26:06;100749.88;;;9.52;48.20
9695;BME280;4690;52.422;13.486;2023-03-18T03:28:32;100749.41;;;9.62;47.37
9695;BME280;4690;52.422;13.486;2023-03-18T03:30:59;100750.06;;;9.57;47.85
9695;BME280;4690;52.422;13.486;2023-03-18T03:33:26;100750.41;;;9.68;47.49
9695;BME280;4690;52.422;13.486;2023-03-18T03:35:53;100761.81;;;9.64;47.91
9695;BME280;4690;52.422;13.486;2023-03-18T03:38:19;100763.88;;;9.69;47.98
9695;BME280;4690;52.422;13.486;2023-03-18T03:40:46;100771.41;;;9.74;47.34
9695;BME280;4690;52.422;13.486;2023-03-18T03:43:13;100772.84;;;9.83;47.57
9695;BME280;4690;52.422;13.486;2023-03-18T03:45:41;100767.75;;;9.86;46.98
9695;BME280;4690;52.422;13.486;2023-03-18T03:48:08;100768.97;;;9.91;47.16
9695;BME280;4690;52.422;13.486;2023-03-18T03:50:35;100764.28;;;9.73;47.23
9695;BME280;4690;52.422;13.486;2023-03-18T03:53:02;100757.97;;;9.72;47.78
9695;BME280;4690;52.422;13.486;2023-03-18T03:55:30;100755.63;;;9.76;47.35
9695;BME280;4690;52.422;13.486;2023-03-18T03:57:56;100752.22;;;9.80;47.75
9695;BME280;4690;52.422;13.486;2023-03-18T04:00:23;100756.69;;;9.75;47.69
9695;BME280;4690;52.422;13.486;2023-03-18T04:02:51;100765.09;;;9.73;47.59
9695;BME280;4690;52.422;13.486;2023-03-18T04:05:21;100758.75;;;9.79;47.59
9695;BME280;4690;52.422;13.486;2023-03-18T04:07:48;100760.91;;;9.71;47.61
9695;BME280;4690;52.422;13.486;2023-03-18T04:10:17;100767.44;;;9.70;47.98
9695;BME280;4690;52.422;13.486;2023-03-18T04:12:45;100767.50;;;9.63;48.25
9695;BME280;4690;52.422;13.486;2023-03-18T04:15:14;100760.31;;;9.69;48.34
9695;BME280;4690;52.422;13.486;2023-03-18T04:17:40;100767.66;;;9.68;47.93
9695;BME280;4690;52.422;13.486;2023-03-18T04:20:08;100766.88;;;9.61;47.89
9695;BME280;4690;52.422;13.486;2023-03-18T04:22:34;100775.72;;;9.63;48.37
9695;BME280;4690;52.422;13.486;2023-03-18T04:25:01;100779.16;;;9.52;48.68
9695;BME280;4690;52.422;13.486;2023-03-18T04:27:27;100776.13;;;9.60;48.81
9695;BME280;4690;52.422;13.486;2023-03-18T04:29:53;100781.22;;;9.56;48.14
9695;BME280;4690;52.422;13.486;2023-03-18T04:32:19;100778.28;;;9.51;48.72
9695;BME280;4690;52.422;13.486;2023-03-18T04:34:45;100773.69;;;9.45;48.77
9695;BME280;4690;52.422;13.486;2023-03-18T04:37:12;100781.25;;;9.50;48.29
9695;BME280;4690;52.422;13.486;2023-03-18T04:39:40;100783.63;;;9.39;48.77
9695;BME280;4690;52.422;13.486;2023-03-18T04:42:06;100772.28;;;9.36;48.57
9695;BME280;4690;52.422;13.486;2023-03-18T04:44:32;100781.31;;;9.36;48.95
9695;BME280;4690;52.422;13.486;2023-03-18T04:46:58;100785.56;;;9.32;49.09
9695;BME280;4690;52.422;13.486;2023-03-18T04:49:24;100783.66;;;9.33;49.21
9695;BME280;4690;52.422;13.486;2023-03-18T04:51:50;100787.47;;;9.25;49.35
9695;BME280;4690;52.422;13.486;2023-03-18T04:54:16;100787.44;;;9.32;49.46
9695;BME280;4690;52.422;13.486;2023-03-18T04:56:41;100789.53;;;9.36;49.39
9695;BME280;4690;52.422;13.486;2023-03-18T04:59:08;100781.50;;;9.41;48.96
9695;BME280;4690;52.422;13.486;2023-03-18T05:01:34;100789.28;;;9.45;48.91
9695;BME280;4690;52.422;13.486;2023-03-18T05:03:59;100788.94;;;9.28;49.13
9695;BME280;4690;52.422;13.486;2023-03-18T05:06:29;100790.63;;;9.22;49.35
9695;BME280;4690;52.422;13.486;2023-03-18T05:08:56;100785.41;;;9.14;49.51
9695;BME280;4690;52.422;13.486;2023-03-18T05:11:24;100789.13;;;9.26;49.72
9695;BME280;4690;52.422;13.486;2023-03-18T05:13:50;100793.53;;;9.34;49.52
9695;BME280;4690;52.422;13.486;2023-03-18T05:16:16;100784.06;;;9.36;49.18
9695;BME280;4690;52.422;13.486;2023-03-18T05:18:43;100793.28;;;9.42;49.18
9695;BME280;4690;52.422;13.486;2023-03-18T05:21:10;100796.00;;;9.42;49.02
9695;BME280;4690;52.422;13.486;2023-03-18T05:23:36;100786.78;;;9.36;48.98
9695;BME280;4690;52.422;13.486;2023-03-18T05:26:04;100789.19;;;9.19;49.45
9695;BME280;4690;52.422;13.486;2023-03-18T05:28:31;100790.84;;;9.20;50.12
9695;BME280;4690;52.422;13.486;2023-03-18T05:30:57;100795.28;;;9.22;50.25
9695;BME280;4690;52.422;13.486;2023-03-18T05:33:23;100798.69;;;9.10;50.41
9695;BME280;4690;52.422;13.486;2023-03-18T05:35:49;100797.22;;;9.08;50.39
9695;BME280;4690;52.422;13.486;2023-03-18T05:38:15;100802.88;;;9.13;50.36
9695;BME280;4690;52.422;13.486;2023-03-18T05:40:41;100789.41;;;9.11;50.80
9695;BME280;4690;52.422;13.486;2023-03-18T05:43:07;100785.84;;;9.11;50.41
9695;BME280;4690;52.422;13.486;2023-03-18T05:45:33;100799.31;;;9.12;50.41
9695;BME280;4690;52.422;13.486;2023-03-18T05:47:59;100803.31;;;9.10;50.54
9695;BME280;4690;52.422;13.486;2023-03-18T05:50:34;100798.31;;;8.93;50.72
9695;BME280;4690;52.422;13.486;2023-03-18T05:53:03;100809.03;;;8.95;50.93
9695;BME280;4690;52.422;13.486;2023-03-18T05:55:31;100811.97;;;9.00;50.92
9695;BME280;4690;52.422;13.486;2023-03-18T05:57:58;100805.41;;;9.08;50.74
9695;BME280;4690;52.422;13.486;2023-03-18T06:00:26;100803.91;;;9.12;50.87
9695;BME280;4690;52.422;13.486;2023-03-18T06:02:58;100808.00;;;8.96;50.90
9695;BME280;4690;52.422;13.486;2023-03-18T06:05:26;100798.75;;;8.84;51.62
9695;BME280;4690;52.422;13.486;2023-03-18T06:07:53;100798.13;;;8.88;51.43
9695;BME280;4690;52.422;13.486;2023-03-18T06:10:21;100802.31;;;8.91;51.35
9695;BME280;4690;52.422;13.486;2023-03-18T06:12:48;100795.75;;;9.05;50.93
9695;BME280;4690;52.422;13.486;2023-03-18T06:15:15;100807.28;;;9.14;50.69
9695;BME280;4690;52.422;13.486;2023-03-18T06:17:40;100804.94;;;9.17;50.17
9695;BME280;4690;52.422;13.486;2023-03-18T06:20:09;100803.03;;;9.25;50.34
9695;BME280;4690;52.422;13.486;2023-03-18T06:22:37;100807.44;;;9.26;50.33
9695;BME280;4690;52.422;13.486;2023-03-18T06:25:04;100808.03;;;9.34;49.95
9695;BME280;4690;52.422;13.486;2023-03-18T06:27:33;100803.59;;;9.40;49.99
9695;BME280;4690;52.422;13.486;2023-03-18T06:30:00;100814.75;;;9.38;50.41
9695;BME280;4690;52.422;13.486;2023-03-18T06:32:29;100816.59;;;9.51;49.81
9695;BME280;4690;52.422;13.486;2023-03-18T06:34:55;100817.84;;;9.55;50.34
9695;BME280;4690;52.422;13.486;2023-03-18T06:37:21;100822.47;;;9.55;50.06
9695;BME280;4690;52.422;13.486;2023-03-18T06:39:47;100820.31;;;9.63;50.07
9695;BME280;4690;52.422;13.486;2023-03-18T06:42:14;100822.19;;;9.70;49.96
9695;BME280;4690;52.422;13.486;2023-03-18T06:44:39;100819.91;;;9.60;49.31
9695;BME280;4690;52.422;13.486;2023-03-18T06:47:09;100821.66;;;9.48;50.05
9695;BME280;4690;52.422;13.486;2023-03-18T06:49:35;100827.53;;;9.51;50.07
9695;BME280;4690;52.422;13.486;2023-03-18T06:52:01;100825.53;;;9.72;49.73
9695;BME280;4690;52.422;13.486;2023-03-18T06:54:27;100828.19;;;9.85;49.72
9695;BME280;4690;52.422;13.486;2023-03-18T06:56:53;100832.78;;;9.91;49.16
9695;BME280;4690;52.422;13.486;2023-03-18T06:59:19;100836.31;;;9.98;49.07
9695;BME280;4690;52.422;13.486;2023-03-18T07:01:47;100841.13;;;10.03;48.68
9695;BME280;4690;52.422;13.486;2023-03-18T07:04:14;100837.97;;;9.99;48.76
9695;BME280;4690;52.422;13.486;2023-03-18T07:06:39;100836.31;;;9.98;49.01
9695;BME280;4690;52.422;13.486;2023-03-18T07:09:05;100849.03;;;10.18;48.86
9695;BME280;4690;52.422;13.486;2023-03-18T07:11:32;100853.38;;;10.32;48.68
9695;BME280;4690;52.422;13.486;2023-03-18T07:13:58;100857.88;;;10.51;47.96
9695;BME280;4690;52.422;13.486;2023-03-18T07:16:23;100861.53;;;10.64;47.52
9695;BME280;4690;52.422;13.486;2023-03-18T07:18:49;100861.44;;;10.77;47.73
9695;BME280;4690;52.422;13.486;2023-03-18T07:21:15;100865.69;;;10.73;47.42
9695;BME280;4690;52.422;13.486;2023-03-18T07:23:41;100873.22;;;10.52;47.98
9695;BME280;4690;52.422;13.486;2023-03-18T07:26:07;100871.19;;;10.73;47.73
9695;BME280;4690;52.422;13.486;2023-03-18T07:28:33;100869.56;;;10.84;47.11
9695;BME280;4690;52.422;13.486;2023-03-18T07:30:59;100869.66;;;10.52;48.27
9695;BME280;4690;52.422;13.486;2023-03-18T07:33:25;100862.63;;;10.63;48.62
9695;BME280;4690;52.422;13.486;2023-03-18T07:35:51;100857.16;;;10.81;47.96
9695;BME280;4690;52.422;13.486;2023-03-18T07:38:17;100860.00;;;11.11;46.68
9695;BME280;4690;52.422;13.486;2023-03-18T07:40:43;100866.94;;;11.14;47.33
9695;BME280;4690;52.422;13.486;2023-03-18T07:43:09;100871.28;;;11.58;46.62
9695;BME280;4690;52.422;13.486;2023-03-18T07:45:34;100878.94;;;11.38;46.33
9695;BME280;4690;52.422;13.486;2023-03-18T07:48:00;100878.38;;;11.11;47.62
9695;BME280;4690;52.422;13.486;2023-03-18T07:50:26;100888.56;;;11.04;48.14
9695;BME280;4690;52.422;13.486;2023-03-18T07:52:52;100886.03;;;11.27;47.91
9695;BME280;4690;52.422;13.486;2023-03-18T07:55:18;100887.16;;;11.38;48.00
9695;BME280;4690;52.422;13.486;2023-03-18T07:57:45;100884.41;;;11.75;46.93
9695;BME280;4690;52.422;13.486;2023-03-18T08:00:12;100884.97;;;11.77;46.73
9695;BME280;4690;52.422;13.486;2023-03-18T08:02:39;100888.59;;;11.59;46.91
9695;BME280;4690;52.422;13.486;2023-03-18T08:05:06;100892.94;;;12.15;46.47
9695;BME280;4690;52.422;13.486;2023-03-18T08:07:33;100897.13;;;12.60;45.00
9695;BME280;4690;52.422;13.486;2023-03-18T08:10:00;100896.72;;;12.44;44.80
9695;BME280;4690;52.422;13.486;2023-03-18T08:12:26;100891.13;;;12.51;44.86
9695;BME280;4690;52.422;13.486;2023-03-18T08:14:53;100900.00;;;12.88;44.91
9695;BME280;4690;52.422;13.486;2023-03-18T08:17:19;100901.22;;;13.04;44.23
9695;BME280;4690;52.422;13.486;2023-03-18T08:19:45;100898.44;;;13.51;43.30
9695;BME280;4690;52.422;13.486;2023-03-18T08:22:14;100896.63;;;13.57;43.30
9695;BME280;4690;52.422;13.486;2023-03-18T08:24:40;100893.38;;;13.72;43.27
9695;BME280;4690;52.422;13.486;2023-03-18T08:27:06;100898.28;;;14.27;41.50
9695;BME280;4690;52.422;13.486;2023-03-18T08:29:34;100899.72;;;14.46;40.73
9695;BME280;4690;52.422;13.486;2023-03-18T08:32:00;100904.13;;;14.76;40.30
9695;BME280;4690;52.422;13.486;2023-03-18T08:34:26;100904.69;;;15.12;39.96
9695;BME280;4690;52.422;13.486;2023-03-18T08:36:52;100914.38;;;15.14;40.19
9695;BME280;4690;52.422;13.486;2023-03-18T08:39:18;100910.22;;;14.95;40.31
9695;BME280;4690;52.422;13.486;2023-03-18T08:41:44;100910.56;;;15.15;39.91
9695;BME280;4690;52.422;13.486;2023-03-18T08:44:10;100914.56;;;15.08;40.37
9695;BME280;4690;52.422;13.486;2023-03-18T08:46:37;100914.41;;;16.19;38.62
9695;BME280;4690;52.422;13.486;2023-03-18T08:49:04;100917.97;;;15.54;38.97
9695;BME280;4690;52.422;13.486;2023-03-18T08:51:30;100911.97;;;15.18;40.41
9695;BME280;4690;52.422;13.486;2023-03-18T08:53:57;100919.59;;;14.94;41.12
9695;BME280;4690;52.422;13.486;2023-03-18T08:56:24;100901.28;;;14.88;41.47
9695;BME280;4690;52.422;13.486;2023-03-18T08:58:50;100902.19;;;15.10;40.83
9695;BME280;4690;52.422;13.486;2023-03-18T09:01:17;100894.38;;;15.24;41.32
9695;BME280;4690;52.422;13.486;2023-03-18T09:03:47;100892.31;;;14.97;41.46
9695;BME280;4690;52.422;13.486;2023-03-18T09:06:14;100894.03;;;14.82;41.69
9695;BME280;4690;52.422;13.486;2023-03-18T09:08:40;100902.75;;;15.29;41.24
9695;BME280;4690;52.422;13.486;2023-03-18T09:11:07;100910.34;;;15.22;41.17
9695;BME280;4690;52.422;13.486;2023-03-18T09:13:34;100922.31;;;15.28;41.22
9695;BME280;4690;52.422;13.486;2023-03-18T09:16:00;100924.59;;;15.14;41.25
9695;BME280;4690;52.422;13.486;2023-03-18T09:18:27;100931.72;;;14.93;42.16
9695;BME280;4690;52.422;13.486;2023-03-18T09:20:53;100927.53;;;14.90;42.11
9695;BME280;4690;52.422;13.486;2023-03-18T09:23:19;100924.34;;;15.15;41.92
9695;BME280;4690;52.422;13.486;2023-03-18T09:25:46;100926.19;;;15.10;41.93
9695;BME280;4690;52.422;13.486;2023-03-18T09:28:13;100920.25;;;15.18;41.75
9695;BME280;4690;52.422;13.486;2023-03-18T09:30:39;100921.56;;;15.32;41.89
9695;BME280;4690;52.422;13.486;2023-03-18T09:33:06;100926.41;;;15.64;40.99
9695;BME280;4690;52.422;13.486;2023-03-18T09:35:34;100931.94;;;15.64;41.47
9695;BME280;4690;52.422;13.486;2023-03-18T09:38:00;100927.38;;;15.53;41.34
9695;BME280;4690;52.422;13.486;2023-03-18T09:40:29;100935.13;;;15.56;41.33
9695;BME280;4690;52.422;13.486;2023-03-18T09:44:08;100930.91;;;16.14;40.39
9695;BME280;4690;52.422;13.486;2023-03-18T09:46:42;100944.63;;;16.58;39.20
9695;BME280;4690;52.422;13.486;2023-03-18T09:52:35;100939.97;;;16.91;39.67
9695;BME280;4690;52.422;13.486;2023-03-18T09:55:23;100936.13;;;17.34;38.38
9695;BME280;4690;52.422;13.486;2023-03-18T09:57:56;100930.53;;;17.72;37.83
9695;BME280;4690;52.422;13.486;2023-03-18T10:00:35;100931.97;;;17.79;37.25
9695;BME280;4690;52.422;13.486;2023-03-18T10:03:24;100933.25;;;17.61;38.52
9695;BME280;4690;52.422;13.486;2023-03-18T10:06:00;100931.31;;;18.25;36.87
9695;BME280;4690;52.422;13.486;2023-03-18T10:08:41;100925.28;;;18.74;35.79
9695;BME280;4690;52.422;13.486;2023-03-18T10:11:36;100922.50;;;18.58;36.07
9695;BME280;4690;52.422;13.486;2023-03-18T10:19:57;100926.81;;;19.62;35.03
9695;BME280;4690;52.422;13.486;2023-03-18T10:22:36;100924.63;;;19.69;34.64
9695;BME280;4690;52.422;13.486;2023-03-18T10:31:09;100944.19;;;19.13;36.10
9695;BME280;4690;52.422;13.486;2023-03-18T10:33:53;100933.06;;;19.18;36.22
9695;BME280;4690;52.422;13.486;2023-03-18T10:36:58;100935.69;;;19.84;35.70
9695;BME280;4690;52.422;13.486;2023-03-18T10:39:28;100931.22;;;19.88;34.98
9695;BME280;4690;52.422;13.486;2023-03-18T10:41:57;100929.72;;;19.26;36.40
9695;BME280;4690;52.422;13.486;2023-03-18T10:44:29;100926.25;;;19.80;35.48
9695;BME280;4690;52.422;13.486;2023-03-18T10:47:00;100928.19;;;20.34;34.57
9695;BME280;4690;52.422;13.486;2023-03-18T10:49:33;100928.91;;;20.06;34.86
9695;BME280;4690;52.422;13.486;2023-03-18T10:52:13;100936.47;;;19.95;35.47
9695;BME280;4690;52.422;13.486;2023-03-18T10:54:44;100936.81;;;19.83;35.92
9695;BME280;4690;52.422;13.486;2023-03-18T10:57:20;100933.53;;;19.71;36.63
9695;BME280;4690;52.422;13.486;2023-03-18T10:59:48;100943.53;;;20.27;35.53
9695;BME280;4690;52.422;13.486;2023-03-18T11:05:00;100941.56;;;21.11;34.08
9695;BME280;4690;52.422;13.486;2023-03-18T11:07:29;100949.50;;;20.59;34.19
9695;BME280;4690;52.422;13.486;2023-03-18T11:10:16;100950.47;;;20.34;35.18
9695;BME280;4690;52.422;13.486;2023-03-18T11:12:42;100937.59;;;19.99;35.65
9695;BME280;4690;52.422;13.486;2023-03-18T11:15:18;100937.53;;;20.04;35.89
9695;BME280;4690;52.422;13.486;2023-03-18T11:17:48;100935.28;;;20.11;35.85
9695;BME280;4690;52.422;13.486;2023-03-18T11:20:33;100923.81;;;20.68;35.85
9695;BME280;4690;52.422;13.486;2023-03-18T11:23:28;100920.22;;;20.67;35.44
9695;BME280;4690;52.422;13.486;2023-03-18T11:26:28;100921.03;;;20.18;35.36
9695;BME280;4690;52.422;13.486;2023-03-18T11:29:04;100922.19;;;20.12;35.81
9695;BME280;4690;52.422;13.486;2023-03-18T11:31:30;100927.16;;;20.20;36.12
9695;BME280;4690;52.422;13.486;2023-03-18T11:33:57;100919.03;;;20.29;36.24
9695;BME280;4690;52.422;13.486;2023-03-18T11:36:26;100920.03;;;19.99;36.90
9695;BME280;4690;52.422;13.486;2023-03-18T11:39:00;100909.84;;;20.33;36.42
9695;BME280;4690;52.422;13.486;2023-03-18T11:41:27;100919.56;;;20.36;36.89
9695;BME280;4690;52.422;13.486;2023-03-18T11:46:38;100928.78;;;19.72;37.78
9695;BME280;4690;52.422;13.486;2023-03-18T11:49:12;100934.44;;;18.59;40.32
9695;BME280;4690;52.422;13.486;2023-03-18T12:00:34;100923.63;;;19.03;40.71
9695;BME280;4690;52.422;13.486;2023-03-18T12:06:40;100937.81;;;20.08;39.80
9695;BME280;4690;52.422;13.486;2023-03-18T12:09:23;100928.69;;;19.97;39.95
9695;BME280;4690;52.422;13.486;2023-03-18T12:12:39;100918.91;;;20.54;38.85
9695;BME280;4690;52.422;13.486;2023-03-18T12:15:43;100918.94;;;21.18;37.70
9695;BME280;4690;52.422;13.486;2023-03-18T12:21:43;100913.59;;;21.21;37.82
9695;BME280;4690;52.422;13.486;2023-03-18T12:27:22;100919.03;;;21.37;37.38
9695;BME280;4690;52.422;13.486;2023-03-18T12:29:58;100912.66;;;21.02;38.99
9695;BME280;4690;52.422;13.486;2023-03-18T12:32:40;100911.44;;;21.13;38.99
9695;BME280;4690;52.422;13.486;2023-03-18T12:35:11;100924.63;;;21.61;38.52
9695;BME280;4690;52.422;13.486;2023-03-18T12:38:09;100918.34;;;21.93;37.51
9695;BME280;4690;52.422;13.486;2023-03-18T12:40:57;100920.09;;;21.89;37.32
9695;BME280;4690;52.422;13.486;2023-03-18T12:44:15;100919.47;;;21.49;38.22
9695;BME280;4690;52.422;13.486;2023-03-18T12:47:06;100916.72;;;21.68;38.25
9695;BME280;4690;52.422;13.486;2023-03-18T12:49:40;100920.78;;;20.98;38.94
9695;BME280;4690;52.422;13.486;2023-03-18T12:52:41;100911.97;;;21.15;38.76
9695;BME280;4690;52.422;13.486;2023-03-18T12:55:19;100920.09;;;21.65;38.86
9695;BME280;4690;52.422;13.486;2023-03-18T13:03:22;100913.97;;;22.49;36.39
9695;BME280;4690;52.422;13.486;2023-03-18T13:06:03;100915.94;;;22.48;37.23
9695;BME280;4690;52.422;13.486;2023-03-18T13:09:12;100910.19;;;21.78;38.44
9695;BME280;4690;52.422;13.486;2023-03-18T13:12:04;100914.56;;;22.08;37.49
9695;BME280;4690;52.422;13.486;2023-03-18T13:17:50;100904.28;;;22.79;36.07
9695;BME280;4690;52.422;13.486;2023-03-18T13:20:28;100906.28;;;22.59;36.67
9695;BME280;4690;52.422;13.486;2023-03-18T13:31:07;100893.91;;;22.98;37.25
9695;BME280;4690;52.422;13.486;2023-03-18T13:39:46;100890.59;;;24.21;34.28
9695;BME280;4690;52.422;13.486;2023-03-18T13:42:34;100891.28;;;24.04;35.25
9695;BME280;4690;52.422;13.486;2023-03-18T13:45:21;100886.69;;;24.22;34.52
9695;BME280;4690;52.422;13.486;2023-03-18T13:48:05;100890.72;;;22.86;36.98
9695;BME280;4690;52.422;13.486;2023-03-18T13:50:41;100889.81;;;23.23;36.30
9695;BME280;4690;52.422;13.486;2023-03-18T13:53:30;100888.56;;;23.16;36.48
9695;BME280;4690;52.422;13.486;2023-03-18T13:58:49;100893.69;;;23.55;36.53
9695;BME280;4690;52.422;13.486;2023-03-18T14:01:26;100882.28;;;23.52;36.56
9695;BME280;4690;52.422;13.486;2023-03-18T14:03:58;100876.97;;;22.00;39.24
9695;BME280;4690;52.422;13.486;2023-03-18T14:09:46;100886.66;;;22.27;39.82
9695;BME280;4690;52.422;13.486;2023-03-18T14:17:47;100886.66;;;22.27;39.91
9695;BME280;4690;52.422;13.486;2023-03-18T14:23:26;100883.94;;;21.79;40.95
9695;BME280;4690;52.422;13.486;2023-03-18T14:26:17;100880.44;;;21.92;40.38
9695;BME280;4690;52.422;13.486;2023-03-18T14:28:49;100876.63;;;22.26;40.21
9695;BME280;4690;52.422;13.486;2023-03-18T14:31:49;100876.00;;;22.10;40.16
9695;BME280;4690;52.422;13.486;2023-03-18T14:37:14;100862.66;;;21.88;40.75
9695;BME280;4690;52.422;13.486;2023-03-18T14:39:45;100869.28;;;21.68;41.05
9695;BME280;4690;52.422;13.486;2023-03-18T14:45:22;100865.56;;;21.30;42.20
9695;BME280;4690;52.422;13.486;2023-03-18T14:47:55;100869.06;;;21.88;40.75
9695;BME280;4690;52.422;13.486;2023-03-18T14:55:37;100866.16;;;20.68;42.77
9695;BME280;4690;52.422;13.486;2023-03-18T14:58:04;100866.50;;;20.91;43.48
9695;BME280;4690;52.422;13.486;2023-03-18T15:00:34;100866.75;;;20.65;43.57
9695;BME280;4690;52.422;13.486;2023-03-18T15:03:08;100869.53;;;20.65;44.27